Time;durP1;ratioP1;P1;durP2;ratioP2;P2;SDS_P1;SDS_P2;PMS_P1;PMS_P2;Temp;Humidity;BMP_temperature;BMP_pressure;BME280_temperature;BME280_humidity;BME280_pressure;Samples;Min_cycle;Max_cycle;Signal;HPM_P1;HPM_P2
2022/04/30 00:00:29;;;;;;;15.10;9.50;;;307.70;2304.00;;;;;;4915756;29;20425;-81
2022/04/30 00:03:04;;;;;;;14.63;10.38;;;307.70;2304.00;;;;;;4916065;29;20024;-82
2022/04/30 00:05:32;;;;;;;14.85;10.77;;;307.60;2304.00;;;;;;4915122;29;20084;-79
2022/04/30 00:08:08;;;;;;;13.05;9.90;;;307.30;2304.00;;;;;;4916275;29;20485;-79
2022/04/30 00:10:37;;;;;;;15.10;10.85;;;307.40;2304.00;;;;;;4915360;29;20043;-79
2022/04/30 00:13:12;;;;;;;15.13;10.63;;;307.40;2304.00;;;;;;4916035;29;20096;-80
2022/04/30 00:15:50;;;;;;;14.65;10.02;;;307.40;2304.00;;;;;;4915508;29;20028;-81
2022/04/30 00:18:16;;;;;;;15.13;9.82;;;307.50;2304.00;;;;;;4931842;29;20036;-83
2022/04/30 00:20:46;;;;;;;15.45;11.00;;;307.30;2304.00;;;;;;4930640;29;20056;-79
2022/04/30 00:23:23;;;;;;;15.18;10.88;;;307.20;2304.00;;;;;;4915115;29;20032;-82
2022/04/30 00:25:50;;;;;;;12.88;10.38;;;307.20;2304.00;;;;;;4898740;29;20059;-82
2022/04/30 00:28:18;;;;;;;13.60;10.48;;;307.20;2304.00;;;;;;4900328;29;20484;-83
2022/04/30 00:30:47;;;;;;;11.88;9.77;;;307.40;2304.00;;;;;;4915268;29;20036;-83
2022/04/30 00:33:13;;;;;;;18.88;11.25;;;307.40;2304.00;;;;;;4915744;29;20028;-84
2022/04/30 00:35:40;;;;;;;15.38;11.07;;;307.60;2304.00;;;;;;4915335;29;20063;-82
2022/04/30 00:38:14;;;;;;;16.92;10.77;;;307.40;2304.00;;;;;;4914857;29;20032;-81
2022/04/30 00:40:48;;;;;;;17.70;12.38;;;307.50;2304.00;;;;;;4915269;29;20036;-81
2022/04/30 00:43:14;;;;;;;19.77;13.80;;;307.40;2304.00;;;;;;4916424;29;20028;-82
2022/04/30 00:46:11;;;;;;;24.42;16.13;;;307.30;2304.00;;;;;;4915429;29;20382;-80
2022/04/30 00:48:37;;;;;;;23.40;14.60;;;307.40;2304.00;;;;;;4883675;29;20132;-79
2022/04/30 00:51:04;;;;;;;27.67;16.45;;;307.40;2304.00;;;;;;4884314;29;20428;-81
2022/04/30 00:53:32;;;;;;;22.65;14.55;;;307.30;2304.00;;;;;;4885134;29;20459;-82
2022/04/30 00:56:00;;;;;;;16.95;12.10;;;307.30;2304.00;;;;;;4888854;29;20036;-81
2022/04/30 00:58:29;;;;;;;21.63;13.85;;;307.20;2304.00;;;;;;4920312;29;20039;-80
2022/04/30 01:00:58;;;;;;;19.00;12.40;;;307.30;2304.00;;;;;;4917269;29;20090;-82
2022/04/30 01:03:24;;;;;;;39.58;24.17;;;307.40;2304.00;;;;;;4918239;29;20032;-82
2022/04/30 01:06:04;;;;;;;34.80;23.25;;;307.60;2304.00;;;;;;4917209;29;20032;-81
2022/04/30 01:08:31;;;;;;;30.25;18.17;;;307.50;2304.00;;;;;;4917464;29;20035;-81
2022/04/30 01:11:04;;;;;;;22.10;13.93;;;307.40;2304.00;;;;;;4889309;29;20166;-82
2022/04/30 01:13:36;;;;;;;24.52;15.70;;;307.40;2304.00;;;;;;4883332;29;20025;-79
2022/04/30 01:16:40;;;;;;;39.95;26.42;;;307.30;2304.00;;;;;;4882957;29;20035;-81
2022/04/30 01:19:07;;;;;;;22.27;15.65;;;307.20;2304.00;;;;;;4878588;29;20434;-79
2022/04/30 01:21:41;;;;;;;19.45;14.00;;;307.30;2304.00;;;;;;4882856;29;20682;-79
2022/04/30 01:24:12;;;;;;;22.85;14.57;;;307.30;2304.00;;;;;;4883126;29;20077;-83
2022/04/30 01:26:38;;;;;;;33.38;19.67;;;307.40;2304.00;;;;;;4882626;29;20020;-78
2022/04/30 01:29:06;;;;;;;35.40;21.40;;;307.40;2304.00;;;;;;4883075;29;20119;-80
2022/04/30 01:37:40;;;;;;;26.40;16.95;;;282.50;2278.40;;;;;;4899256;29;20091;-79
2022/04/30 01:40:11;;;;;;;16.75;11.63;;;307.30;2304.00;;;;;;4882380;29;20039;-77
2022/04/30 01:42:47;;;;;;;16.48;13.77;;;282.30;2278.40;;;;;;4882255;29;20021;-78
2022/04/30 01:45:15;;;;;;;20.63;13.50;;;282.30;2278.40;;;;;;4887082;29;20009;-80
2022/04/30 01:47:50;;;;;;;16.88;12.10;;;282.30;2278.40;;;;;;4907896;29;20016;-80
2022/04/30 01:50:17;;;;;;;15.63;11.27;;;282.30;2278.40;;;;;;4888856;29;20036;-81
2022/04/30 01:52:43;;;;;;;13.65;10.38;;;282.10;2278.40;;;;;;4899361;29;20076;-79
2022/04/30 01:55:12;;;;;;;18.17;11.10;;;282.10;2278.40;;;;;;4901459;29;20035;-80
2022/04/30 01:57:42;;;;;;;17.63;12.55;;;282.10;2278.40;;;;;;4901047;29;20051;-82
2022/04/30 02:00:20;;;;;;;13.02;10.25;;;282.30;2278.40;;;;;;4848993;29;1541284;-82
2022/04/30 02:02:49;;;;;;;14.45;10.45;;;282.30;2278.40;;;;;;4911254;29;20028;-83
2022/04/30 02:05:24;;;;;;;19.48;12.77;;;282.20;2278.40;;;;;;4898465;29;20036;-81
2022/04/30 02:07:53;;;;;;;24.88;16.45;;;282.10;2278.40;;;;;;4898991;29;20036;-83
2022/04/30 02:10:21;;;;;;;31.52;16.70;;;282.10;2278.40;;;;;;4898852;29;20033;-78
2022/04/30 02:13:13;;;;;;;26.25;15.70;;;282.50;2278.40;;;;;;4882427;29;20444;-82
2022/04/30 02:16:18;;;;;;;22.23;14.20;;;282.20;2278.40;;;;;;4902118;29;20398;-81
2022/04/30 02:19:08;;;;;;;19.30;12.93;;;282.10;2278.40;;;;;;4878952;29;20136;-81
2022/04/30 02:28:18;;;;;;;24.83;16.45;;;282.10;2278.40;;;;;;4877514;29;20058;-82
2022/04/30 02:30:57;;;;;;;22.05;14.93;;;282.00;2278.40;;;;;;4855092;29;20214;-82
2022/04/30 02:33:23;;;;;;;34.55;17.95;;;282.20;2278.40;;;;;;4863387;29;20025;-80
2022/04/30 02:35:49;;;;;;;25.58;16.88;;;282.20;2278.40;;;;;;4871503;29;20059;-81
2022/04/30 02:38:29;;;;;;;29.42;16.23;;;282.20;2278.40;;;;;;4900848;29;20068;-81
2022/04/30 02:40:56;;;;;;;37.42;17.80;;;282.20;2278.40;;;;;;4901215;29;20028;-83
2022/04/30 02:43:51;;;;;;;31.13;16.90;;;282.10;2278.40;;;;;;4885567;29;20036;-79
2022/04/30 02:46:21;;;;;;;32.95;16.77;;;282.10;2278.40;;;;;;4900284;29;20032;-82
2022/04/30 02:48:48;;;;;;;26.90;15.52;;;282.10;2278.40;;;;;;4901467;29;20032;-82
2022/04/30 02:51:17;;;;;;;31.67;15.60;;;282.10;2278.40;;;;;;4900580;29;20485;-82
2022/04/30 02:53:44;;;;;;;24.95;14.70;;;282.20;2278.40;;;;;;4900690;29;20028;-82
2022/04/30 02:56:10;;;;;;;17.70;12.43;;;282.20;2278.40;;;;;;4900153;29;20517;-82
2022/04/30 03:02:10;;;;;;;14.07;9.60;;;282.20;2278.40;;;;;;4902664;29;20590;-81
2022/04/30 03:04:36;;;;;;;12.60;10.07;;;282.20;2278.40;;;;;;4901055;29;20035;-83
2022/04/30 03:07:03;;;;;;;15.45;9.88;;;282.40;2278.40;;;;;;4891043;29;20020;-81
2022/04/30 03:09:31;;;;;;;14.70;11.45;;;282.30;2278.40;;;;;;4882404;29;20025;-82
2022/04/30 03:12:15;;;;;;;14.15;10.93;;;282.20;2278.40;;;;;;4881145;29;20073;-81
2022/04/30 03:14:42;;;;;;;19.27;12.25;;;282.30;2278.40;;;;;;4882102;29;20028;-83
2022/04/30 03:22:57;;;;;;;15.70;10.90;;;282.30;2278.40;;;;;;4917756;29;20038;-81
2022/04/30 03:25:33;;;;;;;13.40;11.75;;;281.90;2278.40;;;;;;4900123;29;20509;-82
2022/04/30 03:29:14;;;;;;;;;;;;;;;;;;;;;
2022/04/30 03:32:38;;;;;;;16.13;12.32;;;281.70;2278.40;;;;;;4833365;29;20100;-81
2022/04/30 03:35:50;;;;;;;14.15;10.73;;;281.70;2278.40;;;;;;4820007;29;20081;-81
2022/04/30 03:38:36;;;;;;;;;;;;;;;;;;;;;
2022/04/30 03:41:29;;;;;;;15.50;11.63;;;281.80;2278.40;;;;;;4810171;29;20050;-80
2022/04/30 03:44:18;;;;;;;18.23;10.77;;;281.70;2278.40;;;;;;4809295;29;20034;-82
2022/04/30 03:46:54;;;;;;;;;;;281.80;2278.40;;;;;;4807528;29;20456;-84
2022/04/30 03:49:32;;;;;;;18.98;11.57;;;256.90;2252.80;;;;;;4875686;29;20027;-82
2022/04/30 03:52:24;;;;;;;;;;;;;;;;;;;;;
2022/04/30 04:05:28;;;;;;;17.67;12.35;;;256.90;2252.80;;;;;;4768769;30;20055;-79
2022/04/30 04:08:40;;;;;;;18.48;12.55;;;281.70;2278.40;;;;;;4780689;29;20406;-82
2022/04/30 04:11:51;;;;;;;18.58;12.65;;;281.80;2278.40;;;;;;4759907;30;20038;-82
2022/04/30 04:17:39;;;;;;;17.45;12.73;;;282.00;2278.40;;;;;;4799889;29;20086;-83
2022/04/30 04:20:41;;;;;;;21.45;14.40;;;282.00;2278.40;;;;;;4840001;29;20030;-82
2022/04/30 04:23:10;;;;;;;23.50;14.57;;;281.90;2278.40;;;;;;4824413;29;20447;-80
2022/04/30 04:29:16;;;;;;;;;;;;;;;;;;;;;
2022/04/30 04:32:48;;;;;;;;;;;;;;;;;;;;;
2022/04/30 04:35:41;;;;;;;14.45;11.95;;;281.70;2278.40;;;;;;4890842;29;20036;-82
2022/04/30 04:38:31;;;;;;;17.75;12.52;;;256.90;2252.80;;;;;;4893030;29;20510;-83
2022/04/30 04:41:15;;;;;;;19.05;13.18;;;256.70;2252.80;;;;;;4899727;29;20379;-80
2022/04/30 04:44:33;;;;;;;25.58;16.50;;;256.70;2252.80;;;;;;4916928;29;20028;-83
2022/04/30 04:50:34;;;;;;;16.40;12.25;;;256.90;2252.80;;;;;;4904267;29;20047;-81
2022/04/30 04:53:20;;;;;;;19.85;13.15;;;281.60;2278.40;;;;;;4912948;29;20040;-80
2022/04/30 04:59:21;;;;;;;22.15;13.85;;;281.80;2278.40;;;;;;4915806;29;20042;-79
2022/04/30 05:02:06;;;;;;;;;;;;;;;;;;;;;
2022/04/30 05:05:29;;;;;;;;;;;;;;;;;;;;;
2022/04/30 05:08:33;;;;;;;17.38;12.02;;;281.70;2278.40;;;;;;4916601;29;20470;-83
2022/04/30 05:11:51;;;;;;;15.15;10.38;;;281.70;2278.40;;;;;;4888955;29;20036;-80
2022/04/30 05:15:15;;;;;;;12.50;9.65;;;281.90;2278.40;;;;;;4825152;29;20034;-81
2022/04/30 05:18:08;;;;;;;14.93;10.30;;;281.70;2278.40;;;;;;4897421;29;20112;-82
2022/04/30 05:21:27;;;;;;;17.75;10.02;;;281.70;2278.40;;;;;;4872655;29;20040;-82
2022/04/30 05:24:16;;;;;;;20.38;10.95;;;281.80;2278.40;;;;;;4911108;29;20084;-81
2022/04/30 05:27:04;;;;;;;12.35;9.30;;;281.90;2278.40;;;;;;4909124;29;20036;-81
2022/04/30 05:30:11;;;;;;;13.60;9.18;;;282.10;2278.40;;;;;;4908673;29;20497;-82
2022/04/30 05:33:08;;;;;;;13.32;8.80;;;282.00;2278.40;;;;;;4909862;29;20028;-81
2022/04/30 05:35:39;;;;;;;14.23;9.60;;;282.10;2278.40;;;;;;4918642;29;20054;-81
2022/04/30 05:38:06;;;;;;;12.93;8.90;;;282.20;2278.40;;;;;;4887529;29;20032;-81
2022/04/30 05:40:41;;;;;;;16.50;10.77;;;282.10;2278.40;;;;;;4901855;29;20035;-82
2022/04/30 05:47:22;;;;;;;18.40;10.30;;;282.30;2278.40;;;;;;4915775;29;20047;-81
2022/04/30 05:50:55;;;;;;;13.90;9.35;;;282.50;2278.40;;;;;;4877919;29;20483;-81
2022/04/30 05:53:21;;;;;;;11.82;9.27;;;282.50;2278.40;;;;;;4883602;29;20028;-80
2022/04/30 05:59:03;;;;;;;10.75;8.60;;;307.30;2304.00;;;;;;4900753;29;20040;-80
2022/04/30 06:01:57;;;;;;;11.40;8.20;;;307.60;2304.00;;;;;;4898822;29;20052;-82
2022/04/30 06:04:23;;;;;;;12.30;8.63;;;307.60;2304.00;;;;;;4897386;29;20096;-78
2022/04/30 06:06:55;;;;;;;10.52;8.77;;;307.80;2304.00;;;;;;4883008;29;20077;-81
2022/04/30 06:12:29;;;;;;;15.35;9.65;;;332.80;2329.60;;;;;;4886181;29;20403;-78
2022/04/30 06:14:55;;;;;;;26.70;17.58;;;333.10;2329.60;;;;;;4883075;29;20025;-78
2022/04/30 06:17:21;;;;;;;14.57;11.02;;;333.20;2329.60;;;;;;4882137;29;20483;-76
2022/04/30 06:19:47;;;;;;;28.33;25.67;;;333.40;2329.60;;;;;;4883243;29;20040;-76
2022/04/30 06:22:13;;;;;;;11.50;9.40;;;333.30;2329.60;;;;;;4882613;29;20025;-76
2022/04/30 06:24:39;;;;;;;10.20;7.97;;;333.40;2329.60;;;;;;4900091;29;20134;-76
2022/04/30 06:27:09;;;;;;;9.07;7.20;;;333.50;2329.60;;;;;;4882499;29;20112;-76
2022/04/30 06:29:35;;;;;;;15.20;8.32;;;333.60;2329.60;;;;;;4883130;29;20044;-76
2022/04/30 06:32:02;;;;;;;10.77;7.97;;;358.50;2329.60;;;;;;4882591;29;20048;-77
2022/04/30 06:34:28;;;;;;;15.75;7.97;;;358.40;2329.60;;;;;;4900531;29;20051;-78
2022/04/30 06:36:54;;;;;;;12.25;8.75;;;358.60;2329.60;;;;;;4882205;29;20779;-76
2022/04/30 06:39:20;;;;;;;16.30;8.90;;;358.80;2329.60;;;;;;4900073;29;20025;-77
2022/04/30 06:41:46;;;;;;;14.27;8.48;;;358.90;2329.60;;;;;;4900820;29;20151;-80
2022/04/30 06:44:11;;;;;;;11.82;8.23;;;359.00;2329.60;;;;;;4901199;29;20466;-79
2022/04/30 06:46:37;;;;;;;12.85;8.18;;;359.10;2329.60;;;;;;4917245;29;20067;-81
2022/04/30 06:49:06;;;;;;;9.82;7.78;;;359.20;2329.60;;;;;;4917732;29;20036;-82
2022/04/30 06:51:32;;;;;;;9.98;8.10;;;359.20;2329.60;;;;;;4905135;29;20036;-81
2022/04/30 06:57:12;;;;;;;14.38;9.35;;;384.00;2329.60;;;;;;4899646;29;20031;-80
2022/04/30 06:59:42;;;;;;;10.75;8.95;;;359.30;2329.60;;;;;;4898103;29;20411;-79
2022/04/30 07:02:17;;;;;;;10.40;7.72;;;384.30;2329.60;;;;;;4882363;29;20139;-82
2022/04/30 07:04:43;;;;;;;14.55;12.50;;;384.30;2329.60;;;;;;4899078;29;20047;-84
2022/04/30 07:07:09;;;;;;;16.17;12.65;;;384.50;2329.60;;;;;;4881910;29;20033;-83
2022/04/30 07:09:36;;;;;;;13.75;10.25;;;384.60;2329.60;;;;;;4883209;29;20116;-84
2022/04/30 07:12:04;;;;;;;13.13;9.98;;;384.10;2329.60;;;;;;4891934;29;20024;-84
2022/04/30 07:14:32;;;;;;;11.30;9.18;;;384.70;2329.60;;;;;;4901607;29;20028;-81
2022/04/30 07:16:58;;;;;;;10.75;8.35;;;384.90;2329.60;;;;;;4905345;29;20035;-80
2022/04/30 07:19:24;;;;;;;12.80;8.48;;;409.80;2355.20;;;;;;4908023;29;20055;-80
2022/04/30 07:21:50;;;;;;;17.45;14.48;;;410.20;2355.20;;;;;;4900872;29;20060;-80
2022/04/30 07:24:16;;;;;;;12.77;9.40;;;410.20;2355.20;;;;;;4900969;29;20032;-77
2022/04/30 07:26:42;;;;;;;10.57;9.02;;;410.10;2355.20;;;;;;4900121;29;20238;-79
2022/04/30 07:29:08;;;;;;;11.15;9.13;;;410.30;2355.20;;;;;;4900909;29;20382;-79
2022/04/30 07:31:33;;;;;;;13.70;9.43;;;410.50;2355.20;;;;;;4900460;29;20031;-78
2022/04/30 07:34:00;;;;;;;15.35;10.88;;;435.20;2355.20;;;;;;4900535;29;20032;-80
2022/04/30 07:36:26;;;;;;;13.98;10.60;;;435.40;2355.20;;;;;;4899550;29;20091;-78
2022/04/30 07:38:53;;;;;;;13.45;9.73;;;435.60;2355.20;;;;;;4935081;29;20036;-78
2022/04/30 07:41:18;;;;;;;11.02;9.13;;;435.80;2355.20;;;;;;4935016;29;20503;-79
2022/04/30 07:43:44;;;;;;;12.75;9.60;;;435.80;2355.20;;;;;;4919473;29;20118;-81
2022/04/30 07:46:10;;;;;;;13.98;9.40;;;435.90;2355.20;;;;;;4934459;29;20461;-82
2022/04/30 07:48:36;;;;;;;14.30;10.38;;;436.10;2355.20;;;;;;4934785;29;20381;-81
2022/04/30 07:51:01;;;;;;;9.63;7.32;;;460.90;2380.80;;;;;;4934648;29;20031;-79
2022/04/30 07:53:28;;;;;;;12.10;7.80;;;460.90;2380.80;;;;;;4934793;29;20055;-79
2022/04/30 07:55:54;;;;;;;10.35;8.63;;;461.10;2380.80;;;;;;4924753;29;20039;-79
2022/04/30 07:58:20;;;;;;;10.27;8.23;;;461.20;2380.80;;;;;;4915511;29;20116;-79
2022/04/30 08:00:46;;;;;;;11.80;10.07;;;461.20;2380.80;;;;;;4915834;29;20109;-79
2022/04/30 08:03:12;;;;;;;11.50;9.82;;;461.40;2380.80;;;;;;4917371;29;20119;-76
2022/04/30 08:05:38;;;;;;;12.00;9.05;;;461.60;2380.80;;;;;;4899521;29;20032;-78
2022/04/30 08:08:04;;;;;;;8.85;7.53;;;461.70;2380.80;;;;;;4900097;29;20036;-80
2022/04/30 08:10:30;;;;;;;9.85;7.93;;;461.70;2380.80;;;;;;4916150;29;20467;-79
2022/04/30 08:12:56;;;;;;;12.50;8.52;;;461.70;2380.80;;;;;;4900306;29;20035;-81
2022/04/30 08:15:26;;;;;;;10.27;8.68;;;486.40;2380.80;;;;;;4916971;29;20036;-80
2022/04/30 08:17:53;;;;;;;9.88;7.43;;;486.60;2380.80;;;;;;4917531;29;20028;-83
2022/04/30 08:20:19;;;;;;;9.65;7.65;;;486.70;2380.80;;;;;;4917057;29;20032;-79
2022/04/30 08:22:45;;;;;;;11.68;8.05;;;486.70;2380.80;;;;;;4900131;29;20119;-79
2022/04/30 08:25:11;;;;;;;9.10;7.03;;;486.70;2380.80;;;;;;4917038;29;20063;-78
2022/04/30 08:27:37;;;;;;;7.75;6.63;;;486.80;2380.80;;;;;;4916474;29;20025;-83
2022/04/30 08:30:03;;;;;;;13.68;9.18;;;486.80;2380.80;;;;;;4899992;29;20032;-81
2022/04/30 08:32:29;;;;;;;9.93;7.25;;;487.10;2355.20;;;;;;4916391;29;20028;-80
2022/04/30 08:34:55;;;;;;;9.55;7.68;;;487.20;2278.40;;;;;;4900387;29;20116;-80
2022/04/30 08:37:21;;;;;;;10.85;7.60;;;487.30;2252.80;;;;;;4916192;29;20028;-81
2022/04/30 08:39:48;;;;;;;11.18;7.53;;;487.30;2252.80;;;;;;4915778;29;20033;-81
2022/04/30 08:42:16;;;;;;;9.05;6.60;;;512.30;2227.20;;;;;;4899243;29;20036;-80
2022/04/30 08:44:42;;;;;;;15.35;6.55;;;512.30;2176.00;;;;;;4899181;29;20390;-79
2022/04/30 08:47:11;;;;;;;7.10;5.88;;;512.40;2201.60;;;;;;4916349;29;20032;-78
2022/04/30 08:49:43;;;;;;;8.88;7.88;;;512.50;2201.60;;;;;;4899474;29;20039;-76
2022/04/30 08:52:13;;;;;;;12.02;7.30;;;512.50;2150.40;;;;;;4899153;29;20028;-77
2022/04/30 08:54:39;;;;;;;8.18;6.85;;;512.90;2124.80;;;;;;4917056;29;20084;-82
2022/04/30 08:57:05;;;;;;;8.40;5.70;;;537.60;2176.00;;;;;;4915707;29;20469;-78
2022/04/30 08:59:31;;;;;;;7.57;5.75;;;537.60;2124.80;;;;;;4917894;29;20020;-78
2022/04/30 09:01:58;;;;;;;7.60;5.68;;;537.60;2124.80;;;;;;4898905;29;20060;-77
2022/04/30 09:04:41;;;;;;;9.32;6.03;;;512.50;2099.20;;;;;;4918680;29;20363;-78
2022/04/30 09:07:13;;;;;;;9.95;6.47;;;512.80;2099.20;;;;;;4918741;29;20035;-79
2022/04/30 09:09:39;;;;;;;8.80;5.85;;;537.80;2099.20;;;;;;4919261;29;20036;-76
2022/04/30 09:12:13;;;;;;;9.20;6.75;;;537.70;2048.00;;;;;;4918682;29;20493;-78
2022/04/30 09:14:40;;;;;;;7.95;5.72;;;538.10;2073.60;;;;;;4919158;29;20024;-78
2022/04/30 09:17:12;;;;;;;7.60;4.75;;;538.40;2048.00;;;;;;4917142;29;20028;-77
2022/04/30 09:19:49;;;;;;;6.28;4.97;;;538.30;1971.20;;;;;;4917442;29;20032;-79
2022/04/30 09:22:16;;;;;;;8.95;5.15;;;538.40;1996.80;;;;;;4904687;29;20036;-78
2022/04/30 09:24:49;;;;;;;6.43;5.20;;;538.50;1971.20;;;;;;4883391;29;20035;-77
2022/04/30 09:27:18;;;;;;;9.63;6.55;;;563.40;1971.20;;;;;;4900663;29;20025;-76
2022/04/30 09:29:45;;;;;;;7.22;5.40;;;563.40;1945.60;;;;;;4883791;29;20607;-76
2022/04/30 09:32:22;;;;;;;8.07;5.32;;;563.50;1945.60;;;;;;4900220;29;20352;-73
2022/04/30 09:37:42;;;;;;;8.93;6.30;;;563.70;1894.40;;;;;;4919252;29;20104;-75
2022/04/30 09:40:14;;;;;;;8.50;6.07;;;563.80;1894.40;;;;;;4918322;29;20478;-76
2022/04/30 09:42:45;;;;;;;7.03;5.53;;;564.10;1868.80;;;;;;4919917;29;20028;-76
2022/04/30 09:45:21;;;;;;;7.10;4.70;;;588.80;1843.20;;;;;;4918437;29;20087;-77
2022/04/30 09:47:47;;;;;;;6.20;4.93;;;588.90;1843.20;;;;;;4918881;29;20077;-76
2022/04/30 09:55:48;;;;;;;7.90;5.65;;;563.80;1843.20;;;;;;4919469;29;20035;-76
2022/04/30 09:58:20;;;;;;;9.13;5.05;;;589.00;1843.20;;;;;;4917847;29;20048;-74
2022/04/30 10:00:47;;;;;;;8.60;5.22;;;589.30;1843.20;;;;;;4906662;29;20058;-74
2022/04/30 10:03:13;;;;;;;9.20;5.30;;;589.40;1843.20;;;;;;4922940;29;20119;-73
2022/04/30 10:05:41;;;;;;;7.80;5.50;;;589.60;1792.00;;;;;;4923491;29;20087;-74
2022/04/30 10:08:08;;;;;;;7.18;5.35;;;589.00;1817.60;;;;;;4928385;29;20417;-74
2022/04/30 10:10:46;;;;;;;8.52;5.20;;;589.60;1817.60;;;;;;4920096;29;20059;-75
2022/04/30 10:13:15;;;;;;;6.18;4.38;;;614.60;1817.60;;;;;;4919304;29;20031;-74
2022/04/30 10:15:56;;;;;;;6.07;4.65;;;614.70;1740.80;;;;;;4918543;29;20028;-73
2022/04/30 10:18:33;;;;;;;6.53;5.20;;;614.80;1766.40;;;;;;4917853;29;20474;-78
2022/04/30 10:21:00;;;;;;;7.70;5.57;;;614.90;1740.80;;;;;;4917719;29;20032;-80
2022/04/30 10:23:26;;;;;;;14.63;8.68;;;614.90;1715.20;;;;;;4919379;29;20032;-76
2022/04/30 10:25:54;;;;;;;7.70;6.18;;;614.80;1740.80;;;;;;4916827;29;20038;-75
2022/04/30 10:28:21;;;;;;;6.82;4.88;;;615.00;1740.80;;;;;;4917540;29;20024;-79
2022/04/30 10:31:03;;;;;;;8.45;7.38;;;614.70;1715.20;;;;;;4918739;29;20036;-77
2022/04/30 10:33:30;;;;;;;11.95;8.73;;;614.50;1715.20;;;;;;4919341;29;20032;-78
2022/04/30 10:36:08;;;;;;;8.75;7.13;;;614.90;1715.20;;;;;;4915712;29;20084;-79
2022/04/30 10:38:34;;;;;;;7.95;6.35;;;614.90;1715.20;;;;;;4917953;29;20038;-77
2022/04/30 10:41:02;;;;;;;10.73;6.53;;;615.30;1715.20;;;;;;4908013;29;20040;-76
2022/04/30 10:43:36;;;;;;;7.93;5.07;;;640.10;1715.20;;;;;;4884807;29;20032;-75
2022/04/30 10:46:05;;;;;;;5.78;4.88;;;640.30;1664.00;;;;;;4899815;29;20093;-76
2022/04/30 10:48:32;;;;;;;8.07;4.63;;;640.20;1664.00;;;;;;4899641;29;20386;-79
2022/04/30 10:51:07;;;;;;;6.32;5.38;;;640.50;1689.60;;;;;;4884562;29;20059;-78
2022/04/30 10:53:34;;;;;;;10.40;6.63;;;640.00;1664.00;;;;;;4917165;29;20055;-80
2022/04/30 10:56:04;;;;;;;6.00;4.90;;;640.70;1664.00;;;;;;4916509;29;20028;-79
2022/04/30 10:58:34;;;;;;;7.28;5.82;;;640.70;1638.40;;;;;;4918589;29;20459;-79
2022/04/30 11:01:17;;;;;;;9.52;8.55;;;665.70;1638.40;;;;;;4900925;29;20056;-81
2022/04/30 11:03:50;;;;;;;13.13;6.25;;;666.00;1638.40;;;;;;4917169;29;20032;-83
2022/04/30 11:06:27;;;;;;;8.25;5.85;;;665.70;1638.40;;;;;;4901973;29;20075;-82
2022/04/30 11:09:03;;;;;;;6.60;5.50;;;666.00;1638.40;;;;;;4916308;29;20474;-80
2022/04/30 11:11:29;;;;;;;6.15;5.07;;;666.20;1612.80;;;;;;4916865;29;20024;-79
2022/04/30 11:14:06;;;;;;;6.03;4.13;;;666.20;1587.20;;;;;;4916028;29;20020;-78
2022/04/30 11:16:34;;;;;;;5.90;4.43;;;640.90;1561.60;;;;;;4916521;29;20024;-78
2022/04/30 11:19:03;;;;;;;8.50;4.63;;;665.60;1587.20;;;;;;4915888;29;20028;-79
2022/04/30 11:21:30;;;;;;;6.10;4.75;;;666.00;1612.80;;;;;;4916788;29;20040;-79
2022/04/30 11:23:56;;;;;;;5.20;4.40;;;666.10;1587.20;;;;;;4915554;29;20410;-77
2022/04/30 11:26:22;;;;;;;6.63;4.25;;;640.70;1612.80;;;;;;4899819;29;20020;-78
2022/04/30 11:28:51;;;;;;;6.35;4.88;;;640.40;1638.40;;;;;;4918302;29;20462;-79
2022/04/30 11:31:20;;;;;;;9.02;5.28;;;615.30;1638.40;;;;;;4916241;29;20028;-78
2022/04/30 11:33:46;;;;;;;11.43;5.50;;;614.90;1664.00;;;;;;4916771;29;20115;-79
2022/04/30 11:36:12;;;;;;;5.45;4.30;;;640.40;1638.40;;;;;;4915845;29;20184;-79
2022/04/30 11:38:39;;;;;;;5.22;4.35;;;640.80;1612.80;;;;;;4915545;29;20024;-79
2022/04/30 11:41:07;;;;;;;6.07;4.30;;;665.80;1638.40;;;;;;4916379;29;20078;-78
2022/04/30 11:43:33;;;;;;;8.38;5.07;;;666.00;1587.20;;;;;;4917769;29;20475;-78
2022/04/30 11:46:00;;;;;;;6.40;5.05;;;665.70;1587.20;;;;;;4914695;29;20020;-79
2022/04/30 11:48:31;;;;;;;7.65;5.63;;;666.40;1587.20;;;;;;4917452;29;20032;-79
2022/04/30 11:50:57;;;;;;;9.13;5.95;;;691.20;1561.60;;;;;;4909455;29;20128;-78
2022/04/30 11:53:23;;;;;;;6.63;5.05;;;666.00;1561.60;;;;;;4881077;29;20062;-79
2022/04/30 11:55:50;;;;;;;9.35;4.97;;;666.20;1536.00;;;;;;4901010;29;20035;-79
2022/04/30 11:58:15;;;;;;;5.47;4.28;;;691.70;1561.60;;;;;;4915898;29;20127;-78
2022/04/30 12:00:41;;;;;;;6.82;4.05;;;666.40;1510.40;;;;;;4915402;29;20192;-78
2022/04/30 12:03:07;;;;;;;5.05;3.90;;;666.50;1510.40;;;;;;4916299;29;20485;-79
2022/04/30 12:05:32;;;;;;;5.70;4.35;;;691.30;1536.00;;;;;;4899402;29;20027;-78
2022/04/30 12:08:02;;;;;;;6.90;4.15;;;691.60;1536.00;;;;;;4885223;29;20081;-78
2022/04/30 12:10:28;;;;;;;5.45;4.47;;;691.80;1536.00;;;;;;4915586;29;20097;-78
2022/04/30 12:12:54;;;;;;;5.15;4.25;;;692.10;1536.00;;;;;;4915179;29;20426;-81
2022/04/30 12:15:28;;;;;;;6.25;5.13;;;716.90;1536.00;;;;;;4915869;29;20024;-80
2022/04/30 12:26:51;;;;;;;8.77;5.82;;;717.40;1484.80;;;;;;4916513;29;20080;-79
2022/04/30 12:29:22;;;;;;;10.60;5.72;;;717.00;1484.80;;;;;;4916140;29;20035;-82
2022/04/30 12:31:51;;;;;;;7.68;5.03;;;716.90;1536.00;;;;;;4915402;29;20044;-80
2022/04/30 12:34:18;;;;;;;9.15;4.65;;;716.90;1510.40;;;;;;4916779;29;20028;-79
2022/04/30 12:37:10;;;;;;;6.78;4.60;;;717.10;1510.40;;;;;;4915253;29;20035;-79
2022/04/30 12:39:37;;;;;;;5.82;4.38;;;717.10;1510.40;;;;;;4901278;29;20486;-80
2022/04/30 12:42:04;;;;;;;7.47;4.82;;;717.00;1510.40;;;;;;4918994;29;20510;-77
2022/04/30 12:44:30;;;;;;;7.45;5.15;;;717.30;1510.40;;;;;;4919684;29;20497;-78
2022/04/30 12:46:56;;;;;;;7.57;4.28;;;717.50;1484.80;;;;;;4919636;29;20027;-80
2022/04/30 12:49:21;;;;;;;8.30;4.35;;;717.50;1484.80;;;;;;4923980;29;20020;-76
2022/04/30 12:51:49;;;;;;;5.45;4.38;;;717.50;1484.80;;;;;;4912832;29;20043;-75
2022/04/30 12:54:16;;;;;;;10.20;6.43;;;742.40;1510.40;;;;;;4905161;29;20032;-78
2022/04/30 12:56:56;;;;;;;7.32;5.13;;;717.20;1459.20;;;;;;4918969;29;20028;-77
2022/04/30 12:59:21;;;;;;;8.07;4.63;;;717.70;1484.80;;;;;;4919444;29;20028;-78
2022/04/30 13:01:48;;;;;;;4.90;4.03;;;717.50;1459.20;;;;;;4915516;29;20061;-79
2022/04/30 13:04:14;;;;;;;7.55;6.53;;;717.70;1459.20;;;;;;4900462;29;20032;-79
2022/04/30 13:06:41;;;;;;;6.22;4.43;;;717.50;1459.20;;;;;;4900081;29;20467;-76
2022/04/30 13:14:35;;;;;;;5.65;4.65;;;742.40;1459.20;;;;;;4901500;29;20085;-78
2022/04/30 13:17:01;;;;;;;7.22;4.10;;;742.40;1459.20;;;;;;4883828;29;20079;-78
2022/04/30 13:19:27;;;;;;;7.60;5.22;;;742.40;1484.80;;;;;;4881027;29;20439;-78
2022/04/30 13:21:53;;;;;;;6.45;5.43;;;742.40;1433.60;;;;;;4882035;29;20039;-78
2022/04/30 13:24:19;;;;;;;5.03;4.18;;;742.50;1459.20;;;;;;4882246;29;20045;-78
2022/04/30 13:26:45;;;;;;;7.68;4.43;;;742.50;1484.80;;;;;;4865308;29;20037;-78
2022/04/30 13:29:11;;;;;;;6.80;4.38;;;742.50;1459.20;;;;;;4865590;29;20475;-76
2022/04/30 13:31:38;;;;;;;7.82;4.72;;;742.60;1484.80;;;;;;4876452;29;20044;-76
2022/04/30 13:34:04;;;;;;;7.50;4.53;;;742.50;1459.20;;;;;;4884330;29;20491;-77
2022/04/30 13:36:33;;;;;;;6.63;4.55;;;742.40;1433.60;;;;;;4883243;29;20053;-77
2022/04/30 13:39:00;;;;;;;6.65;4.80;;;742.50;1484.80;;;;;;4884027;29;20032;-79
2022/04/30 13:41:26;;;;;;;9.65;6.07;;;742.50;1459.20;;;;;;4901848;29;20040;-79
2022/04/30 13:43:51;;;;;;;10.98;6.72;;;742.50;1459.20;;;;;;4902639;29;20039;-77
2022/04/30 13:46:18;;;;;;;7.50;4.38;;;742.50;1459.20;;;;;;4919748;29;20497;-75
2022/04/30 13:48:43;;;;;;;6.40;4.00;;;742.40;1433.60;;;;;;4919708;29;20161;-76
2022/04/30 13:51:09;;;;;;;6.03;4.47;;;742.40;1433.60;;;;;;4901391;29;20028;-77
2022/04/30 13:53:35;;;;;;;8.18;5.13;;;742.40;1459.20;;;;;;4902616;29;20059;-76
2022/04/30 13:56:01;;;;;;;6.30;4.35;;;742.40;1433.60;;;;;;4902400;29;20028;-77
2022/04/30 13:58:27;;;;;;;9.25;4.43;;;742.50;1459.20;;;;;;4921216;29;20039;-77
2022/04/30 14:00:53;;;;;;;5.80;4.00;;;742.50;1433.60;;;;;;4901686;29;20052;-76
2022/04/30 14:03:19;;;;;;;8.07;4.00;;;742.50;1433.60;;;;;;4919720;29;20032;-77
2022/04/30 14:05:45;;;;;;;6.63;3.83;;;742.50;1433.60;;;;;;4900756;29;20398;-77
2022/04/30 14:08:12;;;;;;;6.47;4.53;;;742.40;1408.00;;;;;;4901944;29;20097;-77